Time;durP1;ratioP1;P1;durP2;ratioP2;P2;SDS_P1;SDS_P2;PMS_P1;PMS_P2;Temp;Humidity;BMP_temperature;BMP_pressure;BME280_temperature;BME280_humidity;BME280_pressure;Samples;Min_cycle;Max_cycle;Signal;HPM_P1;HPM_P2
2021/10/20 00:01:40;;;;;;;0.30;0.30;;;24.80;51.10;;;;;;5042354;28;20041;-47
2021/10/20 00:04:07;;;;;;;0.30;0.20;;;24.70;51.10;;;;;;5042159;28;20081;-47
2021/10/20 00:06:34;;;;;;;0.88;0.30;;;24.70;51.10;;;;;;5046238;28;20041;-48
2021/10/20 00:09:01;;;;;;;0.60;0.45;;;24.70;51.10;;;;;;5045339;28;20049;-49
2021/10/20 00:11:30;;;;;;;1.48;0.30;;;24.70;51.10;;;;;;5044281;28;20056;-46
2021/10/20 00:13:57;;;;;;;0.63;0.20;;;24.70;51.10;;;;;;5042439;28;20048;-49
2021/10/20 00:16:25;;;;;;;0.55;0.55;;;24.70;51.10;;;;;;5045158;28;20044;-48
2021/10/20 00:18:53;;;;;;;1.40;0.40;;;24.70;51.20;;;;;;5043887;28;20045;-48
2021/10/20 00:21:24;;;;;;;0.20;0.20;;;24.70;51.20;;;;;;5028593;28;20049;-47
2021/10/20 00:23:52;;;;;;;0.45;0.45;;;24.70;51.20;;;;;;5040108;28;20041;-49
2021/10/20 00:26:19;;;;;;;0.55;0.40;;;24.70;51.20;;;;;;5040616;28;20072;-48
2021/10/20 00:28:47;;;;;;;0.57;0.20;;;24.70;51.20;;;;;;5040607;28;20041;-51
2021/10/20 00:31:15;;;;;;;0.20;0.20;;;24.70;51.30;;;;;;5040591;28;20037;-47
2021/10/20 00:33:42;;;;;;;0.20;0.20;;;24.70;51.30;;;;;;5039141;28;20033;-47
2021/10/20 00:36:09;;;;;;;0.32;0.32;;;24.70;51.30;;;;;;5039230;28;20158;-47
2021/10/20 00:38:36;;;;;;;0.22;0.22;;;24.70;51.30;;;;;;5044885;28;20056;-50
2021/10/20 00:41:03;;;;;;;0.35;0.35;;;24.70;51.30;;;;;;5043072;28;20120;-49
2021/10/20 00:43:30;;;;;;;0.88;0.52;;;24.70;51.30;;;;;;5045739;28;20041;-46
2021/10/20 00:45:59;;;;;;;0.60;0.60;;;24.70;51.30;;;;;;5045898;28;20037;-46
2021/10/20 00:48:26;;;;;;;1.58;0.38;;;24.70;51.30;;;;;;5045959;28;20040;-50
2021/10/20 00:50:53;;;;;;;0.32;0.30;;;24.70;51.40;;;;;;5027878;28;20509;-47
2021/10/20 00:53:20;;;;;;;0.60;0.20;;;24.70;51.40;;;;;;5047661;28;20408;-49
2021/10/20 00:55:48;;;;;;;0.20;0.20;;;24.60;51.30;;;;;;5047559;28;20033;-50
2021/10/20 00:58:15;;;;;;;0.68;0.68;;;24.70;51.40;;;;;;5047718;28;20041;-47
2021/10/20 01:00:43;;;;;;;0.40;0.40;;;24.60;51.30;;;;;;5048148;28;20049;-50
2021/10/20 01:03:11;;;;;;;0.40;0.20;;;24.60;51.40;;;;;;5048506;28;20095;-48
2021/10/20 01:05:38;;;;;;;0.40;0.20;;;24.70;51.40;;;;;;5047593;28;20052;-48
2021/10/20 01:08:05;;;;;;;1.00;0.38;;;24.60;51.40;;;;;;5046582;28;20047;-46
2021/10/20 01:10:33;;;;;;;2.17;0.30;;;24.60;51.40;;;;;;5047236;28;20047;-48
2021/10/20 01:13:00;;;;;;;0.73;0.40;;;24.60;51.50;;;;;;5047379;28;20628;-47
2021/10/20 01:15:28;;;;;;;0.68;0.25;;;24.60;51.60;;;;;;5048874;28;20040;-48
2021/10/20 01:17:55;;;;;;;2.08;0.28;;;24.70;51.70;;;;;;5047547;28;20060;-48
2021/10/20 01:20:26;;;;;;;0.80;0.35;;;24.60;51.80;;;;;;5042833;28;20044;-47
2021/10/20 01:22:54;;;;;;;1.08;1.02;;;24.60;51.90;;;;;;5046339;28;20059;-49
2021/10/20 01:25:22;;;;;;;0.57;0.30;;;24.60;51.90;;;;;;5046992;28;20032;-48
2021/10/20 01:27:50;;;;;;;0.40;0.25;;;24.60;52.00;;;;;;5047389;28;20138;-48
2021/10/20 01:30:17;;;;;;;2.40;0.32;;;24.60;52.00;;;;;;5048509;28;20033;-47
2021/10/20 01:32:44;;;;;;;0.40;0.30;;;24.60;52.00;;;;;;5045563;28;20041;-50
2021/10/20 01:35:12;;;;;;;0.60;0.60;;;24.60;52.10;;;;;;5047010;28;20045;-47
2021/10/20 01:37:40;;;;;;;2.38;0.30;;;24.60;52.10;;;;;;5046782;28;20044;-51
2021/10/20 01:40:11;;;;;;;0.10;0.10;;;24.60;52.20;;;;;;5046539;28;20052;-47
2021/10/20 01:42:38;;;;;;;0.30;0.30;;;24.60;52.20;;;;;;5047450;28;20045;-47
2021/10/20 01:45:08;;;;;;;0.43;0.43;;;24.60;52.30;;;;;;5047663;28;20060;-49
2021/10/20 01:47:35;;;;;;;0.40;0.40;;;24.60;52.40;;;;;;5046357;28;20131;-47
2021/10/20 01:50:04;;;;;;;0.50;0.40;;;24.60;52.40;;;;;;5046101;28;20044;-47
2021/10/20 01:52:31;;;;;;;1.15;0.28;;;24.60;52.50;;;;;;5046588;28;20064;-48
2021/10/20 01:54:58;;;;;;;0.30;0.30;;;24.60;52.50;;;;;;5045955;28;20040;-49
2021/10/20 01:57:27;;;;;;;2.42;0.20;;;24.60;52.60;;;;;;5048051;28;20055;-46
2021/10/20 01:59:54;;;;;;;0.88;0.82;;;24.60;52.70;;;;;;5025529;28;20064;-49
2021/10/20 02:02:22;;;;;;;1.10;0.47;;;24.60;52.80;;;;;;5043035;28;20044;-46
2021/10/20 02:04:50;;;;;;;0.50;0.40;;;24.60;52.70;;;;;;5043913;28;20540;-47
2021/10/20 02:07:17;;;;;;;0.40;0.40;;;24.60;52.80;;;;;;5044538;28;20029;-46
2021/10/20 02:09:44;;;;;;;0.47;0.30;;;24.60;52.70;;;;;;5043940;28;20048;-51
2021/10/20 02:12:12;;;;;;;1.20;0.50;;;24.60;52.80;;;;;;5042241;28;20045;-50
2021/10/20 02:14:40;;;;;;;0.50;0.30;;;24.60;52.80;;;;;;5044005;28;20041;-47
2021/10/20 02:17:07;;;;;;;1.77;0.40;;;24.60;52.80;;;;;;5043037;28;20041;-47
2021/10/20 02:19:35;;;;;;;0.47;0.30;;;24.50;52.70;;;;;;5043917;28;20504;-48
2021/10/20 02:22:06;;;;;;;1.48;0.38;;;24.50;52.80;;;;;;5043729;28;20051;-47
2021/10/20 02:24:33;;;;;;;0.40;0.40;;;24.50;53.40;;;;;;5045117;28;20052;-47
2021/10/20 02:27:00;;;;;;;0.47;0.40;;;24.50;52.80;;;;;;5044063;28;20048;-48
2021/10/20 02:29:27;;;;;;;0.20;0.20;;;24.50;52.80;;;;;;5041968;28;20041;-47
2021/10/20 02:31:56;;;;;;;0.15;0.15;;;24.50;52.80;;;;;;5045859;28;20040;-47
2021/10/20 02:34:23;;;;;;;3.80;0.30;;;24.50;52.80;;;;;;5045952;28;20132;-46
2021/10/20 02:36:50;;;;;;;0.40;0.30;;;24.50;52.90;;;;;;5044341;28;20043;-48
2021/10/20 02:39:17;;;;;;;0.63;0.40;;;24.50;53.50;;;;;;5045177;28;20036;-49
2021/10/20 02:41:44;;;;;;;0.75;0.75;;;24.50;52.90;;;;;;5044053;28;20041;-48
2021/10/20 02:44:12;;;;;;;0.40;0.40;;;24.50;52.90;;;;;;5045661;28;20045;-46
2021/10/20 02:46:40;;;;;;;0.50;0.50;;;24.40;52.80;;;;;;5043568;28;20584;-47
2021/10/20 02:49:08;;;;;;;0.70;0.30;;;24.50;52.90;;;;;;5045503;28;20044;-48
2021/10/20 02:51:35;;;;;;;2.00;0.38;;;24.40;52.90;;;;;;5046323;28;20049;-47
2021/10/20 02:54:03;;;;;;;1.77;0.43;;;24.50;52.90;;;;;;5046538;28;20056;-47
2021/10/20 02:56:30;;;;;;;0.40;0.40;;;24.50;52.90;;;;;;5045709;28;20048;-48
2021/10/20 02:58:57;;;;;;;0.47;0.30;;;24.40;52.90;;;;;;5045908;28;20037;-50
2021/10/20 03:01:24;;;;;;;0.45;0.30;;;24.50;52.90;;;;;;5045198;28;20056;-47
2021/10/20 03:03:51;;;;;;;0.32;0.32;;;24.40;52.90;;;;;;5048862;28;20410;-52
2021/10/20 03:06:20;;;;;;;0.30;0.30;;;24.40;52.80;;;;;;5049469;28;20045;-46
2021/10/20 03:08:48;;;;;;;0.30;0.20;;;24.40;52.90;;;;;;5036236;28;20091;-48
2021/10/20 03:11:15;;;;;;;0.70;0.40;;;24.40;52.90;;;;;;5045288;28;20045;-50
2021/10/20 03:13:42;;;;;;;0.47;0.30;;;24.40;52.90;;;;;;5047005;28;20048;-48
2021/10/20 03:16:09;;;;;;;1.10;0.45;;;24.40;52.90;;;;;;5049659;28;20045;-48
2021/10/20 03:18:36;;;;;;;2.38;0.52;;;24.40;52.90;;;;;;5050458;28;20124;-47
2021/10/20 03:21:04;;;;;;;0.47;0.47;;;24.40;53.50;;;;;;5050166;28;20427;-47
2021/10/20 03:23:32;;;;;;;4.70;0.30;;;24.40;52.90;;;;;;5048938;28;20098;-48
2021/10/20 03:25:59;;;;;;;0.70;0.40;;;24.40;53.00;;;;;;5048996;28;20083;-46
2021/10/20 03:28:26;;;;;;;0.70;0.43;;;24.40;53.00;;;;;;5049583;28;20037;-49
2021/10/20 03:30:53;;;;;;;0.30;0.30;;;24.40;53.00;;;;;;5049501;28;20045;-47
2021/10/20 03:33:20;;;;;;;0.55;0.52;;;24.40;53.00;;;;;;5050637;28;20132;-47
2021/10/20 03:35:47;;;;;;;0.30;0.30;;;24.40;53.10;;;;;;5047938;28;20052;-46
2021/10/20 03:38:15;;;;;;;0.55;0.52;;;24.40;53.00;;;;;;5047020;28;20049;-47
2021/10/20 03:40:43;;;;;;;0.60;0.35;;;24.40;53.10;;;;;;5049105;28;20128;-47
2021/10/20 03:43:10;;;;;;;0.50;0.50;;;24.30;53.10;;;;;;5049226;28;20033;-47
2021/10/20 03:45:37;;;;;;;0.65;0.28;;;24.40;53.10;;;;;;5049540;28;20562;-47
2021/10/20 03:48:05;;;;;;;0.65;0.47;;;24.30;53.00;;;;;;5049931;28;20056;-49
2021/10/20 03:50:32;;;;;;;0.75;0.40;;;24.30;53.00;;;;;;5048623;28;20033;-46
2021/10/20 03:52:59;;;;;;;1.17;0.20;;;24.30;53.00;;;;;;5047810;28;20500;-46
2021/10/20 03:55:26;;;;;;;0.63;0.40;;;24.30;53.00;;;;;;5046454;28;20041;-48
2021/10/20 03:57:55;;;;;;;0.40;0.40;;;24.30;53.00;;;;;;5048646;28;20044;-46
2021/10/20 04:00:22;;;;;;;0.50;0.45;;;24.30;53.00;;;;;;5050146;28;20053;-49
2021/10/20 04:02:49;;;;;;;0.43;0.43;;;24.30;53.00;;;;;;5048555;28;20580;-46
2021/10/20 04:05:18;;;;;;;1.67;0.32;;;24.30;53.00;;;;;;5048163;28;20058;-47
2021/10/20 04:07:45;;;;;;;0.50;0.32;;;24.30;53.00;;;;;;5048881;28;20047;-49
2021/10/20 04:10:14;;;;;;;0.40;0.40;;;24.30;53.00;;;;;;5048674;28;20043;-47
2021/10/20 04:12:42;;;;;;;0.50;0.50;;;24.30;53.00;;;;;;5046024;28;20405;-46
2021/10/20 04:15:12;;;;;;;0.40;0.40;;;24.20;53.00;;;;;;5048799;28;20080;-49
2021/10/20 04:17:39;;;;;;;1.40;0.30;;;24.30;53.10;;;;;;5048417;28;20051;-46
2021/10/20 04:20:09;;;;;;;0.77;0.50;;;24.30;53.00;;;;;;5048050;28;20048;-46
2021/10/20 04:22:36;;;;;;;0.73;0.40;;;24.30;53.10;;;;;;5048419;28;20421;-46
2021/10/20 04:25:04;;;;;;;0.98;0.47;;;24.30;53.10;;;;;;5042124;28;20051;-51
2021/10/20 04:27:31;;;;;;;0.30;0.30;;;24.20;53.00;;;;;;5046435;28;20124;-48
2021/10/20 04:29:59;;;;;;;0.60;0.45;;;24.20;53.00;;;;;;5046207;28;20045;-47
2021/10/20 04:32:28;;;;;;;0.30;0.30;;;24.20;53.00;;;;;;5047555;28;20421;-49
2021/10/20 04:34:55;;;;;;;0.55;0.30;;;24.20;53.00;;;;;;5047834;28;20041;-51
2021/10/20 04:37:25;;;;;;;1.65;0.20;;;24.20;53.00;;;;;;5048095;28;20036;-46
2021/10/20 04:39:53;;;;;;;0.40;0.40;;;24.20;53.00;;;;;;5047843;28;20045;-46
2021/10/20 04:42:21;;;;;;;0.80;0.35;;;24.20;53.10;;;;;;5046521;28;20078;-46
2021/10/20 04:44:48;;;;;;;0.77;0.50;;;24.20;53.10;;;;;;5047971;28;20413;-48
2021/10/20 04:47:15;;;;;;;0.45;0.45;;;24.20;53.10;;;;;;5046715;28;20496;-49
2021/10/20 04:49:44;;;;;;;1.60;0.40;;;24.20;53.10;;;;;;5047712;28;20041;-47
2021/10/20 04:52:11;;;;;;;0.35;0.35;;;24.20;53.10;;;;;;5047471;28;20029;-48
2021/10/20 04:54:39;;;;;;;1.00;0.40;;;24.20;53.10;;;;;;5048247;28;20041;-46
2021/10/20 04:57:06;;;;;;;0.25;0.25;;;24.20;53.10;;;;;;5047889;28;20061;-46
2021/10/20 04:59:34;;;;;;;0.50;0.50;;;24.20;53.10;;;;;;5047324;28;20366;-47
2021/10/20 05:02:02;;;;;;;0.40;0.40;;;24.10;53.00;;;;;;5045513;28;20033;-50
2021/10/20 05:04:30;;;;;;;0.35;0.35;;;24.20;53.10;;;;;;5045979;28;20045;-46
2021/10/20 05:06:59;;;;;;;3.83;0.55;;;24.20;53.10;;;;;;5047239;28;20044;-45
2021/10/20 05:09:26;;;;;;;0.50;0.50;;;24.20;53.10;;;;;;5048551;28;20048;-46
2021/10/20 05:11:53;;;;;;;0.40;0.40;;;24.20;53.20;;;;;;5046736;28;20055;-47
2021/10/20 05:14:22;;;;;;;1.17;0.30;;;24.10;53.10;;;;;;5044008;28;20045;-46
2021/10/20 05:16:49;;;;;;;0.68;0.35;;;24.10;53.10;;;;;;5042249;28;20045;-46
2021/10/20 05:19:16;;;;;;;0.85;0.30;;;24.10;53.10;;;;;;5030443;28;20049;-48
2021/10/20 05:21:43;;;;;;;2.75;0.80;;;24.20;53.20;;;;;;5046408;28;20469;-46
2021/10/20 05:24:11;;;;;;;0.52;0.35;;;24.10;53.20;;;;;;5046973;28;20044;-46
2021/10/20 05:26:38;;;;;;;0.55;0.55;;;24.10;53.20;;;;;;5043373;28;20166;-45
2021/10/20 05:29:05;;;;;;;0.45;0.32;;;24.10;53.30;;;;;;5046201;28;20033;-46
2021/10/20 05:31:33;;;;;;;0.43;0.43;;;24.10;53.30;;;;;;5045774;28;20261;-51
2021/10/20 05:34:01;;;;;;;0.77;0.57;;;24.10;53.40;;;;;;5045434;28;20118;-48
2021/10/20 05:36:28;;;;;;;1.45;0.40;;;24.10;53.30;;;;;;5047006;28;20516;-48
2021/10/20 05:38:55;;;;;;;0.45;0.45;;;24.10;53.30;;;;;;5046226;28;20406;-49
2021/10/20 05:41:23;;;;;;;0.98;0.30;;;24.10;53.30;;;;;;5046177;28;20079;-48
2021/10/20 05:43:50;;;;;;;0.90;0.30;;;24.10;53.30;;;;;;5046255;28;20064;-46
2021/10/20 05:46:17;;;;;;;0.32;0.32;;;24.10;53.30;;;;;;5042894;28;20029;-50
2021/10/20 05:48:44;;;;;;;0.40;0.40;;;24.10;53.90;;;;;;5046257;28;20043;-49
2021/10/20 05:51:11;;;;;;;0.65;0.30;;;24.10;53.30;;;;;;5047087;28;20075;-47
2021/10/20 05:53:38;;;;;;;1.95;0.50;;;24.10;53.30;;;;;;5043032;28;20040;-46
2021/10/20 05:56:06;;;;;;;0.30;0.30;;;24.10;53.40;;;;;;5044281;28;20041;-46
2021/10/20 05:58:35;;;;;;;2.75;0.30;;;24.10;53.40;;;;;;5043565;28;20041;-47
2021/10/20 06:01:02;;;;;;;0.80;0.40;;;24.10;53.40;;;;;;5039742;28;20135;-46
2021/10/20 06:03:29;;;;;;;2.38;0.28;;;24.10;53.50;;;;;;5047503;28;20064;-47
2021/10/20 06:05:56;;;;;;;0.40;0.40;;;24.10;53.60;;;;;;5046077;28;20049;-49
2021/10/20 06:08:23;;;;;;;1.52;0.52;;;24.10;53.70;;;;;;5045954;28;20476;-48
2021/10/20 06:10:50;;;;;;;2.80;0.43;;;24.10;53.90;;;;;;5048230;28;20037;-46
2021/10/20 06:13:18;;;;;;;1.55;0.75;;;24.10;54.10;;;;;;5029483;28;20312;-47
2021/10/20 06:15:47;;;;;;;0.40;0.40;;;24.10;54.20;;;;;;5049757;28;20478;-46
2021/10/20 06:18:14;;;;;;;0.68;0.20;;;24.10;54.30;;;;;;5045754;28;20125;-47
2021/10/20 06:20:41;;;;;;;0.65;0.63;;;24.10;54.90;;;;;;5047148;28;20044;-46
2021/10/20 06:23:09;;;;;;;3.97;0.63;;;24.10;54.40;;;;;;5045395;28;20037;-48
2021/10/20 06:25:36;;;;;;;8.88;0.80;;;24.10;54.60;;;;;;5046444;28;20060;-48
2021/10/20 06:28:04;;;;;;;4.07;0.52;;;24.10;54.70;;;;;;5051113;28;20194;-46
2021/10/20 06:30:31;;;;;;;15.57;0.93;;;24.10;55.00;;;;;;5049198;28;20159;-48
2021/10/20 06:32:59;;;;;;;5.25;0.80;;;24.10;55.00;;;;;;5049618;28;20052;-48
2021/10/20 06:35:26;;;;;;;6.57;0.95;;;24.20;55.60;;;;;;5046144;28;20033;-43
2021/10/20 06:37:54;;;;;;;1.30;0.65;;;24.10;55.40;;;;;;5045608;28;20040;-49
2021/10/20 06:40:22;;;;;;;6.10;0.70;;;24.20;55.60;;;;;;5045683;28;20057;-46
2021/10/20 06:42:49;;;;;;;8.18;0.57;;;24.10;55.40;;;;;;5040633;28;20048;-47
2021/10/20 06:45:16;;;;;;;5.00;0.30;;;24.20;55.30;;;;;;5046575;28;20036;-47
2021/10/20 06:47:44;;;;;;;1.30;0.55;;;24.10;55.10;;;;;;5044286;28;20347;-45
2021/10/20 06:50:16;;;;;;;7.88;0.93;;;24.20;55.00;;;;;;5045956;28;20055;-45
2021/10/20 06:52:43;;;;;;;1.67;0.73;;;24.20;54.90;;;;;;5038431;28;20063;-46
2021/10/20 06:55:11;;;;;;;4.25;0.50;;;24.20;54.80;;;;;;5045682;28;20037;-45
2021/10/20 06:57:38;;;;;;;0.68;0.55;;;24.10;54.70;;;;;;5046361;28;20048;-46
2021/10/20 07:00:07;;;;;;;1.23;0.70;;;24.20;54.70;;;;;;5046871;28;20057;-46
2021/10/20 07:02:35;;;;;;;1.58;0.30;;;24.10;54.60;;;;;;5045770;28;20437;-46
2021/10/20 07:05:04;;;;;;;0.30;0.30;;;24.20;54.60;;;;;;5045470;28;20044;-46
2021/10/20 07:07:33;;;;;;;2.03;1.05;;;24.10;54.50;;;;;;5038875;28;20045;-45
2021/10/20 07:10:01;;;;;;;5.45;0.47;;;24.20;54.50;;;;;;5044941;28;20033;-46
2021/10/20 07:12:31;;;;;;;2.65;0.50;;;24.20;54.50;;;;;;5047044;28;20155;-46
2021/10/20 07:14:58;;;;;;;0.93;0.60;;;24.10;54.30;;;;;;5045253;28;20549;-45
2021/10/20 07:17:25;;;;;;;0.70;0.43;;;24.10;54.30;;;;;;5040926;28;20159;-50
2021/10/20 07:19:52;;;;;;;1.17;0.60;;;24.10;54.30;;;;;;5045927;28;20037;-47
2021/10/20 07:22:19;;;;;;;0.43;0.20;;;24.10;54.20;;;;;;5045447;28;20057;-45
2021/10/20 07:24:48;;;;;;;0.98;0.50;;;24.10;54.20;;;;;;5044885;28;20040;-46
2021/10/20 07:27:15;;;;;;;4.13;0.52;;;24.10;54.20;;;;;;5046754;28;20129;-45
2021/10/20 07:29:46;;;;;;;0.70;0.40;;;24.10;54.20;;;;;;5045407;28;20124;-45
2021/10/20 07:32:13;;;;;;;7.72;1.02;;;24.10;54.10;;;;;;5042843;28;20045;-48
2021/10/20 07:34:40;;;;;;;1.25;0.50;;;24.10;54.20;;;;;;5038835;28;20037;-47
2021/10/20 07:37:07;;;;;;;1.10;0.82;;;24.10;54.20;;;;;;5045341;28;20068;-48
2021/10/20 07:39:35;;;;;;;1.05;0.40;;;24.10;54.20;;;;;;5045953;28;20509;-47
2021/10/20 07:42:04;;;;;;;0.40;0.40;;;24.00;54.10;;;;;;5045640;28;20041;-47
2021/10/20 07:44:32;;;;;;;2.30;0.43;;;24.10;54.20;;;;;;5044564;28;20052;-48
2021/10/20 07:46:59;;;;;;;0.52;0.50;;;24.00;54.10;;;;;;5044894;28;20041;-47
2021/10/20 07:49:26;;;;;;;0.52;0.20;;;24.00;54.10;;;;;;5048191;28;20048;-48
2021/10/20 07:51:56;;;;;;;3.47;0.55;;;24.00;54.10;;;;;;5048238;28;20037;-48
2021/10/20 07:54:24;;;;;;;0.90;0.40;;;24.00;54.10;;;;;;5050054;28;20041;-48
2021/10/20 07:56:52;;;;;;;0.52;0.30;;;24.00;54.10;;;;;;5048360;28;20060;-48
2021/10/20 07:59:21;;;;;;;0.30;0.30;;;24.00;54.10;;;;;;5048686;28;20456;-46
2021/10/20 08:01:48;;;;;;;2.08;0.30;;;24.00;54.10;;;;;;5036276;28;20048;-46
2021/10/20 08:04:15;;;;;;;1.17;0.47;;;24.00;54.10;;;;;;5048617;28;20080;-48
2021/10/20 08:06:42;;;;;;;0.25;0.25;;;24.00;54.10;;;;;;5048715;28;20045;-47
2021/10/20 08:09:09;;;;;;;0.63;0.45;;;24.00;54.10;;;;;;5040982;28;20522;-46
2021/10/20 08:11:37;;;;;;;0.30;0.20;;;24.00;54.10;;;;;;5048192;28;20136;-46
2021/10/20 08:14:04;;;;;;;1.13;0.40;;;23.90;54.00;;;;;;5044817;28;20040;-46
2021/10/20 08:16:33;;;;;;;0.40;0.40;;;23.90;54.00;;;;;;5048571;28;20055;-47
2021/10/20 08:19:00;;;;;;;1.40;0.57;;;24.00;54.10;;;;;;5048251;28;20033;-45
2021/10/20 08:21:27;;;;;;;0.40;0.40;;;24.00;54.10;;;;;;5049690;28;20041;-46
2021/10/20 08:23:54;;;;;;;0.32;0.30;;;24.00;54.10;;;;;;5051405;28;20044;-46
2021/10/20 08:26:22;;;;;;;0.50;0.30;;;24.00;54.10;;;;;;5047869;28;20048;-46
2021/10/20 08:28:49;;;;;;;0.22;0.22;;;24.00;54.10;;;;;;5048066;28;20043;-45
2021/10/20 08:31:16;;;;;;;0.80;0.60;;;24.00;54.00;;;;;;5048232;28;20041;-45
2021/10/20 08:33:44;;;;;;;0.30;0.30;;;24.00;54.00;;;;;;5048420;28;20052;-47
2021/10/20 08:36:12;;;;;;;0.98;0.47;;;24.00;54.00;;;;;;5049117;28;20040;-48
2021/10/20 08:38:39;;;;;;;0.52;0.30;;;23.90;54.00;;;;;;5044769;28;20119;-47
2021/10/20 08:41:09;;;;;;;2.03;0.30;;;24.00;54.10;;;;;;5047343;28;20048;-47
2021/10/20 08:43:37;;;;;;;1.38;0.65;;;23.90;54.00;;;;;;5047998;28;20152;-50
2021/10/20 08:46:04;;;;;;;0.60;0.40;;;23.90;54.00;;;;;;5044015;28;20044;-47
2021/10/20 08:48:33;;;;;;;0.40;0.40;;;24.00;54.00;;;;;;5044246;28;20192;-47
2021/10/20 08:51:02;;;;;;;0.88;0.50;;;23.90;54.00;;;;;;5048327;28;20040;-45
2021/10/20 08:53:30;;;;;;;0.55;0.25;;;23.90;54.00;;;;;;5047847;28;20040;-46
2021/10/20 08:55:59;;;;;;;0.30;0.20;;;23.90;54.00;;;;;;5045757;28;20201;-47
2021/10/20 08:58:27;;;;;;;0.80;0.47;;;23.90;54.00;;;;;;5048166;28;20550;-48
2021/10/20 09:00:54;;;;;;;0.63;0.63;;;23.90;54.00;;;;;;5046307;28;20095;-51
2021/10/20 09:03:21;;;;;;;0.85;0.38;;;23.90;54.00;;;;;;5049179;28;20045;-50
2021/10/20 09:05:48;;;;;;;0.98;0.45;;;23.90;54.00;;;;;;5044999;28;20041;-49
2021/10/20 09:08:17;;;;;;;0.85;0.30;;;23.90;54.00;;;;;;5046686;28;20064;-46
2021/10/20 09:10:46;;;;;;;0.55;0.55;;;23.90;54.10;;;;;;5047554;28;20041;-45
2021/10/20 09:13:14;;;;;;;0.95;0.47;;;23.90;54.10;;;;;;5028439;28;20107;-44
2021/10/20 09:15:42;;;;;;;0.68;0.68;;;23.90;54.00;;;;;;5047917;28;20500;-47
2021/10/20 09:18:11;;;;;;;0.35;0.28;;;23.90;54.70;;;;;;5048095;28;20045;-48
2021/10/20 09:20:40;;;;;;;0.35;0.20;;;23.90;54.10;;;;;;5047688;28;20064;-46
2021/10/20 09:23:10;;;;;;;1.50;0.38;;;23.90;54.10;;;;;;5045297;28;20080;-46
2021/10/20 09:25:42;;;;;;;0.75;0.40;;;23.90;54.10;;;;;;5046771;28;20164;-47
2021/10/20 09:28:12;;;;;;;1.08;0.47;;;23.90;54.10;;;;;;5022751;28;20155;-48
2021/10/20 09:30:40;;;;;;;1.30;0.60;;;23.90;54.00;;;;;;5044748;28;20041;-50
2021/10/20 09:33:08;;;;;;;1.05;0.43;;;23.90;54.10;;;;;;5047492;28;20041;-46
2021/10/20 09:35:36;;;;;;;0.75;0.75;;;23.90;54.00;;;;;;5044328;28;20048;-46
2021/10/20 09:38:03;;;;;;;1.52;0.80;;;23.90;54.00;;;;;;5040287;28;20140;-46
2021/10/20 09:40:41;;;;;;;1.30;0.70;;;23.90;54.00;;;;;;5040600;28;20037;-48
2021/10/20 09:43:10;;;;;;;0.50;0.50;;;24.00;54.10;;;;;;5041524;28;20041;-49
2021/10/20 09:45:39;;;;;;;0.77;0.77;;;24.00;54.10;;;;;;5043952;28;20040;-46
2021/10/20 09:48:14;;;;;;;0.70;0.65;;;24.00;54.10;;;;;;5048250;28;20131;-50
2021/10/20 09:50:55;;;;;;;0.50;0.50;;;24.00;54.00;;;;;;5047138;28;20041;-48
2021/10/20 09:53:22;;;;;;;0.57;0.57;;;24.00;54.00;;;;;;5046134;28;20052;-49
2021/10/20 09:55:50;;;;;;;0.85;0.45;;;24.00;54.00;;;;;;5046713;28;20050;-45
2021/10/20 09:58:17;;;;;;;0.88;0.85;;;24.00;54.00;;;;;;5045012;28;20520;-48
2021/10/20 10:00:45;;;;;;;0.40;0.35;;;24.00;54.00;;;;;;5046732;28;20052;-46
2021/10/20 10:03:12;;;;;;;0.55;0.55;;;24.00;54.00;;;;;;5047979;28;20044;-45
2021/10/20 10:05:40;;;;;;;0.57;0.43;;;24.10;54.00;;;;;;5045142;28;20048;-47
2021/10/20 10:08:07;;;;;;;0.60;0.50;;;24.00;53.90;;;;;;5046221;28;20053;-45
2021/10/20 10:10:36;;;;;;;0.57;0.57;;;24.10;53.90;;;;;;5046822;28;20041;-51
2021/10/20 10:13:10;;;;;;;0.43;0.43;;;24.00;53.90;;;;;;5044047;28;20665;-47
2021/10/20 10:15:40;;;;;;;0.40;0.40;;;24.10;53.90;;;;;;5045492;28;20052;-47
2021/10/20 10:18:08;;;;;;;0.73;0.65;;;24.10;53.90;;;;;;5047692;28;20064;-54
2021/10/20 10:20:40;;;;;;;0.77;0.77;;;24.10;53.90;;;;;;5044707;28;20039;-45
2021/10/20 10:23:07;;;;;;;1.40;1.02;;;24.10;53.80;;;;;;5042371;28;20059;-49
2021/10/20 10:25:38;;;;;;;1.10;0.52;;;24.10;53.80;;;;;;5046198;28;20037;-48
2021/10/20 10:28:21;;;;;;;0.47;0.45;;;24.10;53.80;;;;;;5045816;28;20432;-48
2021/10/20 10:30:50;;;;;;;0.38;0.38;;;24.10;53.80;;;;;;5047337;28;20071;-47
2021/10/20 10:33:20;;;;;;;0.65;0.40;;;24.10;53.80;;;;;;5046369;28;20120;-47
2021/10/20 10:36:09;;;;;;;0.40;0.38;;;24.10;53.70;;;;;;5045764;28;20118;-50
2021/10/20 10:38:39;;;;;;;0.60;0.60;;;24.20;53.70;;;;;;5043996;28;20128;-48
2021/10/20 10:41:21;;;;;;;1.65;0.25;;;24.10;53.70;;;;;;5045418;28;20150;-50
2021/10/20 10:44:16;;;;;;;1.33;0.45;;;24.10;53.70;;;;;;5039323;28;20494;-50
2021/10/20 10:46:53;;;;;;;1.55;0.55;;;24.20;53.70;;;;;;5045663;28;20048;-48
2021/10/20 10:49:26;;;;;;;0.60;0.57;;;24.20;53.80;;;;;;5046160;28;20037;-47
2021/10/20 10:52:29;;;;;;;2.10;0.98;;;24.20;53.80;;;;;;5046210;28;20056;-46
2021/10/20 10:54:59;;;;;;;1.15;0.50;;;24.20;53.60;;;;;;5002105;28;20056;-48
2021/10/20 10:57:38;;;;;;;0.50;0.30;;;24.20;53.80;;;;;;5009099;28;20064;-48
2021/10/20 11:00:11;;;;;;;0.85;0.40;;;24.20;53.70;;;;;;5010088;28;20057;-48
2021/10/20 11:02:47;;;;;;;1.60;0.55;;;24.30;53.70;;;;;;5007193;28;20065;-48
2021/10/20 11:05:15;;;;;;;0.70;0.60;;;24.30;53.70;;;;;;5001667;28;20100;-49
2021/10/20 11:07:46;;;;;;;0.40;0.38;;;24.30;53.60;;;;;;5004333;28;20061;-49
2021/10/20 11:10:15;;;;;;;3.40;0.28;;;24.30;53.50;;;;;;5003372;28;20525;-48
2021/10/20 11:12:46;;;;;;;0.95;0.30;;;24.30;53.50;;;;;;5006309;28;20073;-49
2021/10/20 11:15:15;;;;;;;2.95;0.85;;;24.30;53.50;;;;;;5009529;28;20391;-50
2021/10/20 11:17:42;;;;;;;0.70;0.32;;;24.30;53.40;;;;;;5007902;28;20096;-51
2021/10/20 11:20:12;;;;;;;0.95;0.30;;;24.40;53.50;;;;;;5003510;28;20056;-51
2021/10/20 11:22:39;;;;;;;1.15;0.60;;;24.40;53.50;;;;;;5006068;28;20199;-49
2021/10/20 11:25:10;;;;;;;0.73;0.40;;;24.40;53.40;;;;;;5012269;28;20054;-46
2021/10/20 11:27:38;;;;;;;0.82;0.57;;;24.40;53.40;;;;;;5011828;28;20054;-50
2021/10/20 11:30:07;;;;;;;0.70;0.68;;;24.40;53.40;;;;;;5047508;28;20156;-47
2021/10/20 11:32:36;;;;;;;0.90;0.28;;;24.40;53.30;;;;;;5046379;28;20045;-51
2021/10/20 11:35:05;;;;;;;1.40;0.30;;;24.40;53.30;;;;;;5049130;28;20045;-47
2021/10/20 11:37:33;;;;;;;1.13;0.35;;;24.40;53.30;;;;;;5049384;28;20090;-48
2021/10/20 11:40:03;;;;;;;0.73;0.30;;;24.50;53.20;;;;;;5049422;28;20041;-49
2021/10/20 11:42:32;;;;;;;2.67;0.20;;;24.50;53.20;;;;;;5051232;28;20059;-47
2021/10/20 11:45:03;;;;;;;2.42;0.45;;;24.50;53.20;;;;;;5049140;28;20090;-51
2021/10/20 11:47:31;;;;;;;0.68;0.22;;;24.50;53.10;;;;;;5048704;28;20823;-49
2021/10/20 11:50:00;;;;;;;0.95;0.50;;;24.50;53.10;;;;;;5049086;28;20045;-48
2021/10/20 11:52:31;;;;;;;1.10;0.30;;;24.60;53.20;;;;;;5049201;28;20421;-50
2021/10/20 11:54:58;;;;;;;1.10;0.28;;;24.60;53.20;;;;;;5047986;28;20134;-46
2021/10/20 11:57:26;;;;;;;0.40;0.40;;;24.50;53.10;;;;;;5049978;28;20076;-47
2021/10/20 11:59:53;;;;;;;1.20;0.52;;;24.60;53.10;;;;;;5048661;28;20041;-49
2021/10/20 12:02:20;;;;;;;0.47;0.47;;;24.60;53.10;;;;;;5048863;28;20049;-46
2021/10/20 12:04:48;;;;;;;0.32;0.32;;;24.60;53.00;;;;;;5048788;28;20037;-45
2021/10/20 12:07:18;;;;;;;0.55;0.50;;;24.60;53.00;;;;;;5048330;28;20575;-45
2021/10/20 12:09:46;;;;;;;1.30;0.95;;;24.70;53.00;;;;;;5049052;28;20580;-46
2021/10/20 12:12:17;;;;;;;0.30;0.22;;;24.70;52.90;;;;;;5050111;28;20041;-48
2021/10/20 12:14:46;;;;;;;1.35;0.40;;;24.70;52.80;;;;;;5048253;28;20049;-46
2021/10/20 12:17:15;;;;;;;0.20;0.20;;;24.80;52.80;;;;;;5048376;28;20045;-47
2021/10/20 12:19:44;;;;;;;0.85;0.30;;;24.80;52.70;;;;;;5048583;28;20505;-46
2021/10/20 12:22:13;;;;;;;1.15;0.40;;;24.80;52.70;;;;;;5048887;28;20041;-46
2021/10/20 12:24:45;;;;;;;0.30;0.28;;;24.80;52.60;;;;;;5048991;28;20044;-46
2021/10/20 12:27:13;;;;;;;0.93;0.43;;;24.80;52.60;;;;;;5049702;28;20051;-48
2021/10/20 12:29:41;;;;;;;2.58;0.93;;;24.90;52.60;;;;;;5048060;28;20045;-48
2021/10/20 12:32:14;;;;;;;0.45;0.32;;;24.90;52.50;;;;;;5047820;28;20045;-47
2021/10/20 12:34:54;;;;;;;0.55;0.28;;;24.90;52.40;;;;;;5048086;28;20076;-47
2021/10/20 12:37:25;;;;;;;2.88;0.50;;;25.00;52.40;;;;;;5048375;28;20128;-46
2021/10/20 12:39:54;;;;;;;0.93;0.30;;;25.00;52.40;;;;;;5048050;28;20033;-46
2021/10/20 12:42:22;;;;;;;0.65;0.20;;;25.00;52.20;;;;;;5049834;28;20647;-47
2021/10/20 12:44:56;;;;;;;3.10;1.00;;;25.00;52.10;;;;;;5034359;28;20099;-46
2021/10/20 12:47:29;;;;;;;2.28;0.32;;;25.10;52.10;;;;;;5048008;28;20053;-47
2021/10/20 12:49:56;;;;;;;0.60;0.57;;;25.10;52.10;;;;;;5047873;28;20049;-47
2021/10/20 12:52:25;;;;;;;0.45;0.28;;;25.10;52.00;;;;;;5048014;28;20043;-46
2021/10/20 12:54:55;;;;;;;2.60;0.40;;;25.10;52.00;;;;;;5047925;28;20037;-48